createdAt,value
2019-05-09T00:05:44.136Z,13.30
2019-05-09T00:18:14.201Z,13.20
2019-05-09T00:28:15.653Z,13.10
2019-05-09T00:46:00.665Z,12.80
2019-05-09T00:48:33.669Z,12.80
2019-05-09T01:08:33.595Z,12.70
2019-05-09T01:38:43.401Z,12.70
2019-05-09T01:53:43.908Z,12.70
2019-05-09T02:08:43.768Z,12.60
2019-05-09T02:18:44.836Z,12.50
2019-05-09T02:33:45.507Z,12.30
2019-05-09T02:46:10.126Z,12.30
2019-05-09T02:51:09.210Z,12.20
2019-05-09T02:53:39.474Z,12.20
2019-05-09T02:56:09.423Z,12.10
2019-05-09T03:01:18.981Z,12.00
2019-05-09T03:03:48.306Z,12.00
2019-05-09T03:21:29.387Z,11.70
2019-05-09T03:26:29.382Z,11.60
2019-05-09T03:29:08.580Z,11.60
2019-05-09T03:31:39.374Z,11.60
2019-05-09T03:34:09.635Z,11.50
2019-05-09T03:39:08.362Z,11.50
2019-05-09T03:41:39.354Z,11.50
2019-05-09T03:44:07.763Z,11.40
2019-05-09T03:49:11.739Z,11.40
2019-05-09T03:54:09.170Z,11.40
2019-05-09T04:04:10.866Z,11.30
2019-05-09T04:16:38.071Z,11.20
2019-05-09T04:19:08.285Z,11.10
2019-05-09T04:44:17.198Z,11.40
2019-05-09T04:46:42.184Z,11.50
2019-05-09T04:49:11.096Z,11.60
2019-05-09T04:51:39.897Z,11.70
2019-05-09T04:56:38.757Z,11.90
2019-05-09T05:01:38.947Z,12.00
2019-05-09T05:09:08.803Z,12.10
2019-05-09T05:11:38.332Z,12.20
2019-05-09T05:59:58.349Z,13.40
2019-05-09T06:04:57.884Z,13.50
2019-05-09T06:14:58.225Z,13.70
2019-05-09T06:19:58.980Z,13.70
2019-05-09T06:35:18.460Z,14.00
2019-05-09T06:37:47.785Z,14.00
2019-05-09T06:45:24.111Z,14.30
2019-05-09T06:50:20.932Z,14.50
2019-05-09T07:13:31.127Z,15.30
2019-05-09T07:18:28.091Z,15.50
2019-05-09T07:26:07.721Z,15.70
2019-05-09T07:28:37.654Z,15.80
2019-05-09T07:31:23.491Z,15.90
2019-05-09T07:36:21.821Z,12.10
2019-05-09T07:38:50.308Z,16.20
2019-05-09T07:41:18.825Z,16.30
2019-05-09T07:46:18.319Z,16.40
2019-05-09T07:48:48.529Z,16.40
2019-05-09T07:53:48.187Z,16.50
2019-05-09T07:56:18.652Z,16.50
2019-05-09T07:58:47.821Z,16.60
2019-05-09T08:03:49.031Z,16.80
2019-05-09T08:11:18.020Z,16.90
2019-05-09T08:13:48.671Z,16.90
2019-05-09T08:18:48.319Z,17.10
2019-05-09T08:23:48.486Z,17.30
2019-05-09T08:26:18.877Z,17.40
2019-05-09T08:28:48.135Z,17.60
2019-05-09T08:31:17.869Z,17.60
2019-05-09T08:33:48.458Z,17.80
2019-05-09T08:36:19.783Z,17.80
2019-05-09T08:38:47.781Z,18.00
2019-05-09T08:41:18.622Z,18.40
2019-05-09T08:48:48.522Z,18.40
2019-05-09T08:51:18.540Z,18.30
2019-05-09T08:58:48.527Z,18.40
2019-05-09T09:06:18.333Z,18.40
2019-05-09T09:08:48.261Z,18.60
2019-05-09T09:11:18.775Z,18.80
2019-05-09T09:13:48.275Z,19.10
2019-05-09T09:18:48.037Z,19.60
2019-05-09T09:41:38.473Z,20.70
2019-05-09T09:46:34.127Z,20.60
2019-05-09T09:49:02.752Z,20.70
2019-05-09T09:51:31.438Z,20.70
2019-05-09T09:54:00.086Z,20.50
2019-05-09T09:58:58.847Z,20.00
2019-05-09T10:04:16.556Z,20.20
2019-05-09T10:17:04.656Z,21.70
2019-05-09T10:19:52.473Z,21.90
2019-05-09T10:22:28.273Z,21.90
2019-05-09T10:24:58.591Z,22.60
2019-05-09T10:27:28.327Z,22.80
2019-05-09T10:29:57.519Z,22.90
2019-05-09T10:32:28.560Z,23.20
2019-05-09T10:34:58.046Z,25.40
2019-05-09T10:37:26.856Z,23.50
2019-05-09T10:39:57.870Z,23.20
2019-05-09T10:47:42.462Z,21.90
2019-05-09T11:02:37.489Z,22.90
2019-05-09T11:05:08.419Z,23.00
2019-05-09T11:07:38.087Z,22.90
2019-05-09T11:12:36.860Z,23.20
2019-05-09T11:17:34.162Z,24.00
2019-05-09T11:20:02.686Z,24.00
2019-05-09T11:22:31.187Z,24.00
2019-05-09T11:24:59.704Z,24.20
2019-05-09T11:27:29.302Z,24.40
2019-05-09T11:32:27.672Z,24.50
2019-05-09T11:34:57.626Z,24.40
2019-05-09T11:37:26.393Z,24.40
2019-05-09T11:39:54.933Z,24.40
2019-05-09T11:42:23.419Z,24.60
2019-05-09T11:44:51.996Z,24.50
2019-05-09T11:52:18.696Z,25.20
2019-05-09T11:54:48.207Z,25.20
2019-05-09T11:57:19.145Z,24.90
2019-05-09T11:59:48.044Z,24.80
2019-05-09T12:04:48.620Z,24.50
2019-05-09T12:09:48.689Z,24.80
2019-05-09T12:12:19.306Z,25.20
2019-05-09T12:14:48.417Z,25.30
2019-05-09T12:17:19.579Z,25.60
2019-05-09T12:22:19.055Z,25.80
2019-05-09T12:27:18.741Z,25.90
2019-05-09T12:29:48.358Z,25.90
2019-05-09T12:32:18.722Z,27.30
2019-05-09T12:49:42.951Z,25.00
2019-05-09T13:04:35.200Z,24.10
2019-05-09T13:09:32.000Z,25.00
2019-05-09T13:22:08.114Z,28.00
2019-05-09T13:42:04.532Z,25.70
2019-05-09T13:44:33.043Z,30.20
2019-05-09T13:47:01.586Z,30.90
2019-05-09T13:52:04.472Z,31.80
2019-05-09T13:54:28.703Z,30.90
2019-05-09T13:57:00.587Z,30.10
2019-05-09T13:59:30.033Z,29.90
2019-05-09T14:04:28.579Z,28.30
2019-05-09T14:06:58.314Z,27.00
2019-05-09T14:14:28.152Z,24.30
2019-05-09T14:19:39.760Z,23.30
2019-05-09T14:22:17.939Z,23.50
2019-05-09T14:27:18.700Z,26.10
2019-05-09T14:34:43.277Z,25.90
2019-05-09T14:37:11.905Z,27.00
2019-05-09T14:39:54.853Z,26.90
2019-05-09T14:42:10.724Z,26.80
2019-05-09T14:44:39.367Z,26.60
2019-05-09T14:47:08.203Z,26.00
2019-05-09T14:49:41.435Z,22.00
2019-05-09T14:59:38.366Z,22.80
2019-05-09T15:02:09.000Z,22.40
2019-05-09T15:09:36.315Z,21.30
2019-05-09T15:12:05.014Z,21.20
2019-05-09T15:19:30.735Z,20.60
2019-05-09T15:22:00.839Z,20.50
2019-05-09T15:26:58.122Z,20.30
2019-05-09T15:34:28.539Z,20.10
2019-05-09T15:39:27.720Z,20.10
2019-05-09T16:09:18.016Z,22.30
2019-05-09T16:14:18.504Z,23.20
2019-05-09T16:16:47.848Z,23.10
2019-05-09T16:24:12.909Z,22.40
2019-05-09T16:26:41.509Z,22.00
2019-05-09T16:29:10.022Z,21.60
2019-05-09T17:01:28.405Z,20.40
2019-05-09T17:18:58.215Z,20.90
2019-05-09T17:33:57.899Z,27.30
2019-05-09T17:36:28.486Z,30.80
2019-05-09T17:38:56.604Z,31.00
2019-05-09T17:41:25.185Z,34.80
2019-05-09T17:43:53.836Z,35.30
2019-05-09T17:46:24.472Z,36.40
2019-05-09T17:48:52.765Z,36.90
2019-05-09T17:51:32.656Z,36.00
2019-05-09T18:11:17.432Z,22.30
2019-05-09T18:13:48.039Z,21.60
2019-05-09T19:00:59.982Z,17.20
2019-05-09T19:18:36.350Z,16.60
2019-05-09T19:23:35.678Z,16.40
2019-05-09T19:38:29.046Z,16.00
2019-05-09T19:55:46.911Z,15.60
2019-05-09T20:18:15.749Z,15.80
2019-05-09T20:38:02.047Z,15.20
2019-05-09T20:47:56.276Z,15.00
2019-05-09T20:50:25.084Z,15.00
2019-05-09T20:55:23.950Z,15.00
2019-05-09T21:00:21.363Z,15.00
2019-05-09T21:02:50.232Z,14.90
2019-05-09T21:05:19.087Z,14.90
2019-05-09T21:07:47.872Z,14.90
2019-05-09T21:10:18.156Z,14.80
2019-05-09T21:12:46.859Z,14.80
2019-05-09T21:15:15.751Z,14.80
2019-05-09T21:20:13.013Z,14.80
2019-05-09T21:22:41.809Z,14.80
2019-05-09T21:27:39.349Z,13.30
2019-05-09T21:32:36.706Z,14.70
2019-05-09T21:37:33.997Z,14.80
2019-05-09T21:42:30.748Z,14.80
2019-05-09T21:49:55.755Z,14.60
2019-05-09T22:09:42.826Z,14.40
2019-05-09T22:19:40.663Z,14.40
2019-05-09T22:24:37.766Z,14.50
2019-05-09T22:36:59.185Z,14.60
2019-05-09T22:44:24.174Z,15.80
2019-05-09T22:46:52.726Z,16.30
2019-05-09T22:51:49.675Z,16.90
2019-05-09T22:54:18.268Z,17.20
2019-05-09T23:01:43.680Z,17.60
2019-05-09T23:11:37.079Z,17.60
2019-05-09T23:16:35.478Z,17.80
2019-05-09T23:21:33.766Z,17.80
2019-05-09T23:39:09.059Z,16.70
2019-05-09T23:41:37.945Z,16.40
2019-05-09T23:44:06.524Z,16.10
2019-05-09T23:51:49.941Z,15.50
